Time;durP1;ratioP1;P1;durP2;ratioP2;P2;SDS_P1;SDS_P2;PMS_P1;PMS_P2;Temp;Humidity;BMP_temperature;BMP_pressure;BME280_temperature;BME280_humidity;BME280_pressure;Samples;Min_cycle;Max_cycle;Signal;HPM_P1;HPM_P2
2023/07/15 00:01:06;;;;;;;4.28;2.60;;;;;;;21.39;100.00;100238.72;5200537;28;20034;-69
2023/07/15 00:03:38;;;;;;;7.40;2.35;;;;;;;21.38;100.00;100231.63;5198826;28;20026;-69
2023/07/15 00:06:09;;;;;;;6.60;2.70;;;;;;;21.41;100.00;100233.94;5195452;28;20159;-70
2023/07/15 00:08:41;;;;;;;5.15;2.22;;;;;;;21.31;100.00;100221.59;5204778;28;20052;-69
2023/07/15 00:11:29;;;;;;;5.68;2.30;;;;;;;21.31;100.00;100227.00;5195894;28;20042;-70
2023/07/15 00:14:02;;;;;;;8.63;2.33;;;;;;;21.32;100.00;100228.69;5205247;28;20036;-70
2023/07/15 00:16:34;;;;;;;5.77;2.40;;;;;;;21.25;100.00;100227.84;5198439;28;20052;-70
2023/07/15 00:19:05;;;;;;;5.68;2.50;;;;;;;21.23;100.00;100232.63;5199698;28;20471;-69
2023/07/15 00:21:37;;;;;;;6.45;2.35;;;;;;;21.19;100.00;100233.22;5196420;28;20036;-69
2023/07/15 00:24:08;;;;;;;5.47;2.60;;;;;;;21.24;100.00;100222.59;5198185;28;20061;-69
2023/07/15 00:26:40;;;;;;;8.38;2.20;;;;;;;21.18;100.00;100229.66;5199111;28;20042;-69
2023/07/15 00:29:12;;;;;;;6.18;2.13;;;;;;;21.16;100.00;100229.03;5206046;28;20041;-69
2023/07/15 00:31:43;;;;;;;3.45;2.20;;;;;;;21.14;100.00;100226.53;5199621;28;20113;-69
2023/07/15 00:34:15;;;;;;;4.40;2.10;;;;;;;21.17;100.00;100224.44;5201403;28;20526;-70
2023/07/15 00:36:47;;;;;;;6.03;2.42;;;;;;;21.18;100.00;100224.25;5200613;28;20034;-70
2023/07/15 00:39:18;;;;;;;4.78;1.98;;;;;;;21.20;100.00;100224.88;5199500;28;20054;-70
2023/07/15 00:41:54;;;;;;;6.03;2.15;;;;;;;21.13;100.00;100230.28;5198786;28;20033;-69
2023/07/15 00:44:26;;;;;;;4.45;2.08;;;;;;;21.16;100.00;100229.03;5170184;28;20036;-70
2023/07/15 00:47:14;;;;;;;6.00;2.00;;;;;;;21.21;100.00;100231.13;5197868;28;20473;-69
2023/07/15 00:49:46;;;;;;;6.40;2.70;;;;;;;21.18;100.00;100232.38;5198312;28;20022;-70
2023/07/15 00:52:20;;;;;;;5.68;2.70;;;;;;;21.17;100.00;100241.56;5204946;28;20041;-70
2023/07/15 00:54:54;;;;;;;6.43;2.80;;;;;;;21.10;100.00;100232.56;5202510;28;20030;-70
2023/07/15 00:57:26;;;;;;;5.88;2.83;;;;;;;21.06;100.00;100232.13;5203745;28;20056;-70
2023/07/15 01:00:03;;;;;;;7.53;2.88;;;;;;;21.05;100.00;100243.16;5202622;28;20022;-70
2023/07/15 01:02:37;;;;;;;5.70;2.47;;;;;;;21.08;100.00;100237.34;5196675;28;20378;-70
2023/07/15 01:05:10;;;;;;;6.28;2.30;;;;;;;21.01;100.00;100231.88;5198733;28;20026;-70
2023/07/15 01:07:41;;;;;;;4.93;2.42;;;;;;;20.98;100.00;100239.56;5201357;28;20089;-70
2023/07/15 01:10:15;;;;;;;4.40;2.00;;;;;;;20.88;100.00;100232.66;5193456;28;20052;-69
2023/07/15 01:12:47;;;;;;;5.97;2.05;;;;;;;20.95;100.00;100241.66;5202966;28;20033;-70
2023/07/15 01:15:18;;;;;;;3.88;2.17;;;;;;;20.80;100.00;100242.81;5206242;28;20041;-70
2023/07/15 01:17:50;;;;;;;3.88;2.00;;;;;;;20.83;100.00;100245.97;5198839;28;20030;-69
2023/07/15 01:20:25;;;;;;;5.30;2.13;;;;;;;20.73;100.00;100251.75;5203016;28;20057;-70
2023/07/15 01:22:56;;;;;;;5.47;2.20;;;;;;;20.69;100.00;100239.66;5204011;28;20127;-70
2023/07/15 01:25:28;;;;;;;7.93;2.20;;;;;;;20.67;100.00;100243.56;5202011;28;20026;-70
2023/07/15 01:27:59;;;;;;;7.32;1.92;;;;;;;20.60;100.00;100238.13;5202305;28;20337;-69
2023/07/15 01:30:31;;;;;;;4.72;2.20;;;;;;;20.58;100.00;100248.28;5199445;28;20030;-70
2023/07/15 01:33:02;;;;;;;4.28;2.00;;;;;;;20.60;100.00;100242.72;5206901;28;20492;-69
2023/07/15 01:35:33;;;;;;;5.65;1.90;;;;;;;20.41;100.00;100242.31;5201158;28;20420;-70
2023/07/15 01:38:05;;;;;;;5.85;2.28;;;;;;;20.40;100.00;100242.50;5203890;28;20027;-70
2023/07/15 01:40:36;;;;;;;4.63;2.00;;;;;;;20.46;100.00;100239.00;5198993;28;20050;-70
2023/07/15 01:43:09;;;;;;;5.05;2.10;;;;;;;20.30;100.00;100245.56;5204564;28;20613;-70
2023/07/15 01:45:41;;;;;;;4.55;2.00;;;;;;;20.26;100.00;100250.53;5203956;28;20053;-70
2023/07/15 01:48:12;;;;;;;4.53;1.88;;;;;;;20.15;100.00;100251.91;5204968;28;20028;-70
2023/07/15 01:50:44;;;;;;;4.28;2.30;;;;;;;20.14;100.00;100254.81;5198376;28;20033;-69
2023/07/15 01:53:15;;;;;;;5.28;2.05;;;;;;;20.09;100.00;100252.66;5207723;28;20334;-70
2023/07/15 01:55:47;;;;;;;5.13;2.25;;;;;;;20.01;100.00;100257.41;5202689;28;20362;-70
2023/07/15 01:58:19;;;;;;;6.25;2.38;;;;;;;20.08;100.00;100263.72;5215622;28;20041;-70
2023/07/15 02:00:50;;;;;;;6.95;2.20;;;;;;;20.07;100.00;100264.75;5200126;28;20103;-70
2023/07/15 02:03:21;;;;;;;5.07;1.98;;;;;;;19.86;100.00;100263.69;5199162;28;20459;-70
2023/07/15 02:05:53;;;;;;;3.30;1.85;;;;;;;19.95;100.00;100269.84;5203497;28;20683;-70
2023/07/15 02:08:24;;;;;;;3.60;2.00;;;;;;;19.81;100.00;100262.59;5206601;28;20673;-70
2023/07/15 02:10:55;;;;;;;5.50;1.95;;;;;;;19.72;100.00;100261.91;5205033;28;20021;-69
2023/07/15 02:13:28;;;;;;;4.03;2.00;;;;;;;19.69;100.00;100265.78;5209124;28;20082;-70
2023/07/15 02:15:59;;;;;;;3.70;2.00;;;;;;;19.61;100.00;100254.25;5206774;28;20022;-70
2023/07/15 02:18:30;;;;;;;5.80;1.98;;;;;;;19.74;100.00;100262.53;5196948;28;20121;-70
2023/07/15 02:21:02;;;;;;;3.83;1.60;;;;;;;19.50;100.00;100271.81;5202388;28;20025;-70
2023/07/15 02:23:33;;;;;;;5.10;2.30;;;;;;;19.46;100.00;100276.75;5217314;28;20112;-70
2023/07/15 02:26:05;;;;;;;3.67;1.65;;;;;;;19.51;100.00;100268.91;5199131;28;20029;-70
2023/07/15 02:28:37;;;;;;;8.82;2.10;;;;;;;19.37;100.00;100284.16;5206501;28;20484;-69
2023/07/15 02:31:09;;;;;;;4.55;2.15;;;;;;;19.38;100.00;100272.28;5192773;28;20053;-69
2023/07/15 02:33:40;;;;;;;5.45;2.00;;;;;;;19.38;100.00;100275.00;5204415;28;20453;-70
2023/07/15 02:36:13;;;;;;;4.90;2.10;;;;;;;19.33;100.00;100280.16;5204176;28;20037;-70
2023/07/15 02:38:45;;;;;;;5.37;1.90;;;;;;;19.29;100.00;100272.59;5207468;28;20026;-70
2023/07/15 02:41:16;;;;;;;4.97;2.40;;;;;;;19.21;100.00;100276.22;5209489;28;20654;-70
2023/07/15 02:43:47;;;;;;;5.38;2.38;;;;;;;19.16;100.00;100273.28;5204559;28;20022;-70
2023/07/15 02:46:19;;;;;;;5.35;2.40;;;;;;;19.14;100.00;100278.03;5203951;28;20468;-70
2023/07/15 02:48:50;;;;;;;5.60;2.10;;;;;;;19.05;100.00;100268.34;5201738;28;20036;-70
2023/07/15 02:51:23;;;;;;;5.10;1.95;;;;;;;19.02;100.00;100264.13;5206445;28;20396;-70
2023/07/15 02:53:55;;;;;;;3.60;2.00;;;;;;;19.12;100.00;100263.81;5201102;28;20029;-70
2023/07/15 02:56:27;;;;;;;4.28;2.05;;;;;;;19.02;100.00;100268.69;5198534;28;20036;-70
2023/07/15 02:58:58;;;;;;;4.43;2.10;;;;;;;18.99;100.00;100268.03;5201399;28;20451;-70
2023/07/15 03:01:30;;;;;;;6.65;2.45;;;;;;;18.87;100.00;100265.97;5199431;28;20392;-70
2023/07/15 03:04:03;;;;;;;5.60;2.38;;;;;;;18.84;100.00;100260.97;5201769;28;20038;-70
2023/07/15 03:06:34;;;;;;;4.28;2.30;;;;;;;18.73;100.00;100270.31;5196761;28;20396;-70
2023/07/15 03:09:06;;;;;;;4.70;2.42;;;;;;;18.73;100.00;100262.22;5198898;28;20624;-69
2023/07/15 03:11:37;;;;;;;6.97;2.00;;;;;;;18.73;100.00;100265.75;5200372;28;20029;-70
2023/07/15 03:14:08;;;;;;;5.90;2.08;;;;;;;18.83;100.00;100268.25;5205721;28;20037;-70
2023/07/15 03:16:40;;;;;;;5.78;2.70;;;;;;;18.65;100.00;100271.25;5197420;28;20053;-70
2023/07/15 03:19:12;;;;;;;5.63;2.70;;;;;;;18.59;100.00;100275.53;5203703;28;20796;-71
2023/07/15 03:21:44;;;;;;;5.25;2.60;;;;;;;18.54;100.00;100264.44;5199801;28;20069;-70
2023/07/15 03:24:15;;;;;;;7.00;2.40;;;;;;;18.46;100.00;100275.31;5202395;28;20126;-70
2023/07/15 03:26:47;;;;;;;6.88;2.33;;;;;;;18.41;100.00;100275.03;5195461;28;20037;-70
2023/07/15 03:29:19;;;;;;;5.07;2.25;;;;;;;18.49;100.00;100266.84;5199277;28;20060;-70
2023/07/15 03:31:50;;;;;;;4.72;2.47;;;;;;;18.50;100.00;100267.69;5197117;28;20447;-70
2023/07/15 03:34:21;;;;;;;6.35;2.15;;;;;;;18.28;100.00;100275.66;5200261;28;20466;-69
2023/07/15 03:36:53;;;;;;;6.88;2.20;;;;;;;18.22;100.00;100268.28;5200864;28;20038;-70
2023/07/15 03:39:25;;;;;;;6.30;2.40;;;;;;;18.19;100.00;100263.22;5198892;28;20036;-70
2023/07/15 03:41:56;;;;;;;4.38;2.28;;;;;;;18.18;100.00;100261.56;5203157;28;20022;-70
2023/07/15 03:44:28;;;;;;;5.70;2.25;;;;;;;18.26;100.00;100271.47;5196443;28;20030;-70
2023/07/15 03:46:59;;;;;;;5.80;2.42;;;;;;;18.16;100.00;100269.84;5197879;28;20027;-70
2023/07/15 03:49:30;;;;;;;5.70;2.53;;;;;;;18.13;100.00;100269.38;5203981;28;20029;-70
2023/07/15 03:52:02;;;;;;;7.53;2.72;;;;;;;18.06;100.00;100268.41;5194987;28;20310;-70
2023/07/15 03:54:33;;;;;;;8.75;3.05;;;;;;;18.02;100.00;100271.47;5192538;28;20487;-70
2023/07/15 03:57:05;;;;;;;6.03;2.70;;;;;;;18.04;100.00;100265.88;5193964;28;20050;-70
2023/07/15 03:59:36;;;;;;;6.38;2.40;;;;;;;18.04;100.00;100268.56;5204468;28;20025;-70
2023/07/15 04:02:08;;;;;;;7.35;2.72;;;;;;;17.98;100.00;100264.72;5197957;28;20021;-70
2023/07/15 04:04:39;;;;;;;7.82;2.70;;;;;;;17.99;100.00;100261.03;5199515;28;20123;-71
2023/07/15 04:07:10;;;;;;;4.10;2.35;;;;;;;18.09;100.00;100257.25;5200177;28;20030;-69
2023/07/15 04:09:42;;;;;;;4.95;2.60;;;;;;;17.99;100.00;100260.19;5198725;28;20065;-70
2023/07/15 04:12:14;;;;;;;4.75;2.15;;;;;;;18.14;100.00;100255.69;5198751;28;20459;-70
2023/07/15 04:14:45;;;;;;;7.53;2.88;;;;;;;17.98;100.00;100262.03;5198376;28;20037;-70
2023/07/15 04:17:17;;;;;;;7.28;2.78;;;;;;;18.11;100.00;100268.72;5211861;28;20030;-70
2023/07/15 04:19:48;;;;;;;5.45;2.90;;;;;;;17.98;100.00;100266.59;5197909;28;20068;-70
2023/07/15 04:22:20;;;;;;;5.38;2.40;;;;;;;18.06;100.00;100269.22;5198659;28;20034;-70
2023/07/15 04:24:51;;;;;;;4.63;2.45;;;;;;;18.08;100.00;100269.88;5198874;28;20459;-70
2023/07/15 04:27:22;;;;;;;6.40;2.55;;;;;;;18.05;100.00;100266.72;5199316;28;20030;-70
2023/07/15 04:29:54;;;;;;;4.57;2.50;;;;;;;17.98;100.00;100263.91;5199746;28;20480;-70
2023/07/15 04:32:25;;;;;;;5.55;2.10;;;;;;;18.01;100.00;100272.47;5201459;28;20076;-70
2023/07/15 04:34:56;;;;;;;5.28;2.53;;;;;;;17.97;100.00;100281.13;5201458;28;20490;-70
2023/07/15 04:37:30;;;;;;;4.82;2.47;;;;;;;17.97;100.00;100278.44;5197314;28;20353;-70
2023/07/15 04:40:03;;;;;;;5.55;2.13;;;;;;;17.98;100.00;100280.94;5198520;28;20026;-71
2023/07/15 04:42:35;;;;;;;6.38;2.72;;;;;;;18.15;100.00;100276.25;5197316;28;20339;-71
2023/07/15 04:45:07;;;;;;;5.57;2.50;;;;;;;18.09;100.00;100287.78;5199281;28;20655;-70
2023/07/15 04:47:39;;;;;;;5.70;2.58;;;;;;;18.10;100.00;100299.41;5204360;28;20446;-70
2023/07/15 04:50:10;;;;;;;5.63;2.30;;;;;;;18.07;100.00;100287.13;5203905;28;20112;-70
2023/07/15 04:52:42;;;;;;;4.68;2.63;;;;;;;18.22;100.00;100289.88;5202100;28;20038;-70
2023/07/15 04:55:14;;;;;;;5.95;2.42;;;;;;;18.06;100.00;100292.69;5204944;28;20349;-70
2023/07/15 04:57:46;;;;;;;7.05;2.40;;;;;;;18.12;100.00;100300.94;5198042;28;20406;-70
2023/07/15 05:00:20;;;;;;;4.78;2.80;;;;;;;18.13;100.00;100291.78;5202993;28;20488;-70
2023/07/15 05:02:51;;;;;;;7.60;2.60;;;;;;;18.10;100.00;100289.47;5202801;28;20030;-70
2023/07/15 05:05:23;;;;;;;4.90;2.40;;;;;;;18.15;100.00;100284.34;5203232;28;20038;-70
2023/07/15 05:07:59;;;;;;;5.28;2.33;;;;;;;18.21;100.00;100282.78;5208703;28;20107;-70
2023/07/15 05:10:32;;;;;;;8.50;2.60;;;;;;;18.17;100.00;100287.72;5202013;28;20068;-70
2023/07/15 05:13:04;;;;;;;6.10;2.35;;;;;;;18.20;100.00;100291.94;5207962;28;20038;-70
2023/07/15 05:15:36;;;;;;;7.45;2.33;;;;;;;18.31;100.00;100290.63;5202282;28;20095;-70
2023/07/15 05:18:08;;;;;;;3.95;2.17;;;;;;;18.29;100.00;100298.91;5199217;28;20583;-70
2023/07/15 05:20:39;;;;;;;5.63;2.53;;;;;;;18.34;100.00;100291.13;5208213;28;20040;-70
2023/07/15 05:23:11;;;;;;;6.70;2.55;;;;;;;18.38;100.00;100289.72;5202927;28;20044;-70
2023/07/15 05:25:42;;;;;;;5.93;2.00;;;;;;;18.46;100.00;100278.00;5205666;28;20939;-70
2023/07/15 05:28:14;;;;;;;5.07;2.17;;;;;;;18.51;100.00;100278.31;5207681;28;20057;-70
2023/07/15 05:30:45;;;;;;;4.65;2.55;;;;;;;18.49;100.00;100291.16;5199646;28;20042;-70
2023/07/15 05:33:16;;;;;;;4.15;1.90;;;;;;;18.57;100.00;100299.19;5212111;28;20030;-70
2023/07/15 05:35:48;;;;;;;4.10;2.20;;;;;;;18.57;100.00;100292.94;5208791;28;20025;-70
2023/07/15 05:38:24;;;;;;;4.90;2.15;;;;;;;18.71;100.00;100289.41;5206561;28;20422;-70
2023/07/15 05:40:55;;;;;;;5.10;2.30;;;;;;;18.77;100.00;100287.84;5202608;28;20018;-70
2023/07/15 05:43:27;;;;;;;5.97;2.10;;;;;;;18.79;100.00;100293.91;5212507;28;20541;-70
2023/07/15 05:45:58;;;;;;;7.43;2.20;;;;;;;18.94;100.00;100291.25;5204662;28;20040;-70
2023/07/15 05:48:30;;;;;;;4.85;2.30;;;;;;;18.96;100.00;100302.72;5202739;28;20106;-70
2023/07/15 05:51:01;;;;;;;5.05;2.17;;;;;;;19.00;100.00;100299.47;5201211;28;20629;-70
2023/07/15 05:53:33;;;;;;;4.75;2.17;;;;;;;19.19;100.00;100305.31;5208275;28;20025;-70
2023/07/15 05:56:04;;;;;;;4.65;2.05;;;;;;;19.27;100.00;100307.97;5203141;28;20030;-70
2023/07/15 05:58:36;;;;;;;5.57;2.53;;;;;;;19.40;100.00;100315.38;5206652;28;20025;-70
2023/07/15 06:01:07;;;;;;;4.32;2.40;;;;;;;19.47;100.00;100304.66;5202816;28;20029;-70
2023/07/15 06:03:38;;;;;;;7.93;2.13;;;;;;;19.58;100.00;100301.47;5210447;28;20037;-70
2023/07/15 06:06:10;;;;;;;6.18;2.60;;;;;;;19.70;100.00;100301.81;5199535;28;20041;-70
2023/07/15 06:08:41;;;;;;;5.57;2.08;;;;;;;19.72;100.00;100305.22;5201721;28;20046;-70
2023/07/15 06:11:13;;;;;;;5.05;2.35;;;;;;;19.78;100.00;100301.72;5196566;28;20512;-70
2023/07/15 06:13:44;;;;;;;5.55;2.50;;;;;;;19.77;100.00;100314.44;5195287;28;20096;-70
2023/07/15 06:16:16;;;;;;;4.10;2.00;;;;;;;19.85;100.00;100318.91;5201066;28;20048;-70
2023/07/15 06:18:47;;;;;;;5.93;1.70;;;;;;;19.88;100.00;100306.84;5196225;28;20030;-70
2023/07/15 06:21:18;;;;;;;4.57;2.05;;;;;;;19.93;100.00;100304.41;5190668;28;20065;-70
2023/07/15 06:23:50;;;;;;;5.00;2.20;;;;;;;20.05;100.00;100307.44;5190199;28;20789;-70
2023/07/15 06:26:21;;;;;;;4.47;2.00;;;;;;;20.12;100.00;100303.75;5194808;28;20042;-70
2023/07/15 06:28:55;;;;;;;3.33;1.83;;;;;;;20.17;100.00;100317.56;5196930;28;20056;-70
2023/07/15 06:31:27;;;;;;;5.25;2.00;;;;;;;20.28;100.00;100309.94;5209032;28;20030;-69
2023/07/15 06:33:58;;;;;;;4.55;1.90;;;;;;;20.28;100.00;100313.47;5198118;28;20045;-70
2023/07/15 06:36:30;;;;;;;3.35;1.70;;;;;;;20.33;100.00;100318.34;5197012;28;20030;-70
2023/07/15 06:39:02;;;;;;;4.95;2.00;;;;;;;20.52;100.00;100322.25;5202541;28;20038;-70
2023/07/15 06:41:33;;;;;;;5.07;1.63;;;;;;;20.68;100.00;100318.47;5197545;28;20023;-70
2023/07/15 06:44:05;;;;;;;5.53;2.00;;;;;;;20.89;100.00;100320.28;5197737;28;20469;-70
2023/07/15 06:46:37;;;;;;;5.95;1.80;;;;;;;21.10;100.00;100316.66;5198687;28;20091;-69
2023/07/15 06:49:08;;;;;;;4.82;1.48;;;;;;;21.26;100.00;100316.31;5204006;28;20034;-70
2023/07/15 06:51:39;;;;;;;5.25;1.70;;;;;;;21.40;100.00;100309.09;5197681;28;20027;-70
2023/07/15 06:54:11;;;;;;;4.32;1.70;;;;;;;21.47;100.00;100301.84;5204041;28;20037;-70
2023/07/15 06:56:42;;;;;;;6.82;1.80;;;;;;;21.59;100.00;100298.53;5200379;28;20401;-70
2023/07/15 06:59:14;;;;;;;4.75;1.80;;;;;;;21.63;100.00;100295.25;5201384;28;20034;-70
2023/07/15 07:01:45;;;;;;;4.93;1.70;;;;;;;21.75;100.00;100298.19;5194723;28;20044;-69
2023/07/15 07:04:16;;;;;;;5.03;1.80;;;;;;;21.87;100.00;100309.28;5204664;28;20140;-69
2023/07/15 07:06:48;;;;;;;5.63;1.67;;;;;;;22.07;100.00;100312.91;5199211;28;20073;-68
2023/07/15 07:09:19;;;;;;;4.22;1.60;;;;;;;22.14;100.00;100296.59;5202614;28;20108;-69
2023/07/15 07:11:51;;;;;;;4.72;1.48;;;;;;;22.27;100.00;100296.66;5202724;28;20051;-69
2023/07/15 07:14:22;;;;;;;4.35;1.50;;;;;;;22.40;100.00;100301.25;5195512;28;20535;-69
2023/07/15 07:16:54;;;;;;;3.60;1.63;;;;;;;22.46;100.00;100319.44;5205642;28;20056;-69
2023/07/15 07:19:25;;;;;;;4.55;1.63;;;;;;;22.61;100.00;100304.78;5205094;28;20022;-69
2023/07/15 07:21:56;;;;;;;3.70;1.58;;;;;;;22.74;100.00;100310.22;5200997;28;20041;-69
2023/07/15 07:24:28;;;;;;;4.65;1.40;;;;;;;22.83;100.00;100310.84;5202752;28;20037;-69
2023/07/15 07:26:59;;;;;;;5.72;1.30;;;;;;;22.94;100.00;100325.72;5203333;28;21209;-69
2023/07/15 07:29:31;;;;;;;4.05;1.40;;;;;;;22.99;100.00;100323.19;5205889;28;20536;-69
2023/07/15 07:32:03;;;;;;;5.32;1.98;;;;;;;23.06;100.00;100322.16;5210469;28;20045;-69
2023/07/15 07:34:34;;;;;;;7.30;1.40;;;;;;;23.18;100.00;100325.03;5217306;28;20380;-69
2023/07/15 07:37:06;;;;;;;5.43;1.50;;;;;;;23.34;100.00;100334.66;5210116;28;20175;-69
2023/07/15 07:39:37;;;;;;;3.97;1.48;;;;;;;23.49;100.00;100334.38;5211507;28;20025;-69
2023/07/15 07:42:09;;;;;;;4.80;1.48;;;;;;;23.57;100.00;100331.44;5194271;28;20110;-69
2023/07/15 07:44:40;;;;;;;4.90;1.60;;;;;;;23.64;100.00;100325.94;5210234;28;20025;-68
2023/07/15 07:47:13;;;;;;;4.35;1.38;;;;;;;23.69;100.00;100318.78;5203648;28;20037;-69
2023/07/15 07:49:44;;;;;;;6.18;1.70;;;;;;;23.75;100.00;100324.44;5198486;28;20388;-69
2023/07/15 07:52:15;;;;;;;4.22;1.40;;;;;;;23.75;100.00;100319.00;5192530;28;20396;-69
2023/07/15 07:54:47;;;;;;;3.20;1.25;;;;;;;23.81;100.00;100326.31;5201998;28;20038;-69
2023/07/15 07:57:18;;;;;;;4.70;1.20;;;;;;;23.84;100.00;100325.91;5206561;28;20026;-68
2023/07/15 07:59:49;;;;;;;3.35;1.20;;;;;;;23.95;100.00;100313.44;5198468;28;20034;-69
2023/07/15 08:02:21;;;;;;;4.97;1.30;;;;;;;24.01;100.00;100307.97;5199735;28;20124;-69
2023/07/15 08:04:52;;;;;;;4.13;1.35;;;;;;;24.10;100.00;100324.06;5204961;28;20030;-69
2023/07/15 08:07:24;;;;;;;5.82;1.23;;;;;;;24.10;100.00;100332.22;5216614;28;20599;-69
2023/07/15 08:09:55;;;;;;;2.95;1.10;;;;;;;24.07;100.00;100331.63;5197046;28;20581;-68
2023/07/15 08:12:27;;;;;;;7.45;1.30;;;;;;;24.10;100.00;100330.34;5196499;28;20104;-69
2023/07/15 08:14:58;;;;;;;4.15;1.10;;;;;;;24.23;100.00;100332.16;5196813;28;20121;-69
2023/07/15 08:17:29;;;;;;;3.38;1.13;;;;;;;24.39;100.00;100328.91;5210338;28;20038;-69
2023/07/15 08:20:02;;;;;;;4.28;1.35;;;;;;;24.53;100.00;100331.56;5210450;28;20022;-69
2023/07/15 08:22:34;;;;;;;4.60;1.35;;;;;;;24.57;100.00;100336.34;5204109;28;20546;-69
2023/07/15 08:25:06;;;;;;;3.42;1.23;;;;;;;24.67;100.00;100338.56;5202667;28;20034;-69
2023/07/15 08:27:37;;;;;;;3.03;1.13;;;;;;;24.78;100.00;100343.28;5212110;28;20037;-69
2023/07/15 08:30:09;;;;;;;2.67;1.20;;;;;;;24.82;100.00;100344.50;5202573;28;20029;-69
2023/07/15 08:32:41;;;;;;;4.15;1.15;;;;;;;24.89;100.00;100338.16;5204734;28;20200;-69
2023/07/15 08:35:12;;;;;;;4.38;1.40;;;;;;;24.82;100.00;100330.03;5201598;28;20029;-69
2023/07/15 08:37:43;;;;;;;3.28;1.30;;;;;;;24.80;100.00;100332.16;5205087;28;20045;-70
2023/07/15 08:40:16;;;;;;;3.50;1.25;;;;;;;24.74;100.00;100343.94;5203274;28;20030;-69
2023/07/15 08:42:48;;;;;;;5.22;1.38;;;;;;;24.82;100.00;100349.16;5201308;28;21596;-69
2023/07/15 08:45:24;;;;;;;3.47;1.30;;;;;;;24.90;100.00;100353.47;5201823;28;20030;-69
2023/07/15 08:47:56;;;;;;;5.18;1.40;;;;;;;24.98;100.00;100353.19;5206147;28;20104;-69
2023/07/15 08:50:32;;;;;;;4.88;1.58;;;;;;;25.04;100.00;100366.78;5213024;28;20025;-70
2023/07/15 08:53:04;;;;;;;4.78;1.80;;;;;;;25.04;100.00;100365.94;5215319;28;20041;-69
2023/07/15 08:55:36;;;;;;;7.10;3.00;;;;;;;24.98;100.00;100361.38;5211726;28;20563;-69
2023/07/15 08:58:08;;;;;;;5.57;1.50;;;;;;;24.94;100.00;100371.06;5211934;28;20057;-69
2023/07/15 09:00:39;;;;;;;5.68;2.00;;;;;;;24.90;100.00;100378.03;5204918;28;20049;-70
2023/07/15 09:03:10;;;;;;;5.68;1.70;;;;;;;24.87;100.00;100383.94;5199811;28;20026;-70
2023/07/15 09:05:43;;;;;;;8.50;2.00;;;;;;;24.77;100.00;100387.16;5206114;28;20030;-70
2023/07/15 09:08:15;;;;;;;3.67;1.55;;;;;;;24.67;100.00;100387.66;5206700;28;20547;-69
2023/07/15 09:10:58;;;;;;;4.60;1.95;;;;;;;24.61;100.00;100383.09;5209074;28;20061;-70
2023/07/15 09:13:32;;;;;;;5.80;1.75;;;;;;;24.49;100.00;100384.81;5201117;28;20042;-69
2023/07/15 09:16:04;;;;;;;4.93;1.88;;;;;;;24.38;100.00;100381.75;5201314;28;20025;-70
2023/07/15 09:18:40;;;;;;;6.03;2.00;;;;;;;24.37;100.00;100380.06;5199777;28;20038;-70
2023/07/15 09:21:14;;;;;;;7.80;1.67;;;;;;;24.41;100.00;100388.66;5206132;28;20054;-69
2023/07/15 09:23:46;;;;;;;6.82;1.80;;;;;;;24.46;100.00;100391.56;5214941;28;20045;-70
2023/07/15 09:26:18;;;;;;;5.05;1.60;;;;;;;24.58;100.00;100389.81;5210937;28;20388;-70
2023/07/15 09:28:49;;;;;;;5.45;1.70;;;;;;;24.70;100.00;100383.66;5213934;28;20491;-70
2023/07/15 09:31:26;;;;;;;5.63;1.90;;;;;;;24.78;100.00;100386.94;5201739;28;20034;-70
2023/07/15 09:34:03;;;;;;;3.60;1.52;;;;;;;24.76;100.00;100386.34;5203764;28;20032;-70
2023/07/15 09:36:34;;;;;;;4.38;1.70;;;;;;;24.76;100.00;100388.25;5207350;28;20156;-70
2023/07/15 09:39:14;;;;;;;4.93;2.15;;;;;;;24.70;100.00;100394.56;5192819;28;20040;-70
2023/07/15 09:42:00;;;;;;;4.50;1.73;;;;;;;24.63;100.00;100381.00;5201500;28;20014;-70
2023/07/15 09:44:40;;;;;;;5.40;1.80;;;;;;;24.51;100.00;100399.06;5207399;28;20030;-70
2023/07/15 09:47:11;;;;;;;5.45;1.70;;;;;;;24.58;100.00;100410.81;5204567;28;20027;-69
2023/07/15 09:49:43;;;;;;;3.55;1.60;;;;;;;24.54;100.00;100412.31;5211538;28;20041;-70
2023/07/15 09:52:15;;;;;;;4.15;1.88;;;;;;;24.44;100.00;100429.97;5202173;28;20577;-70
2023/07/15 09:54:46;;;;;;;5.55;1.70;;;;;;;24.40;100.00;100427.91;5214166;28;20518;-69
2023/07/15 09:57:20;;;;;;;6.43;1.73;;;;;;;24.34;100.00;100424.16;5206723;28;20037;-70
2023/07/15 09:59:52;;;;;;;3.90;1.67;;;;;;;24.29;100.00;100437.59;5203895;28;20030;-70
2023/07/15 10:02:35;;;;;;;3.63;1.80;;;;;;;24.20;100.00;100428.00;5212922;28;20038;-70
2023/07/15 10:05:12;;;;;;;5.20;2.35;;;;;;;24.12;100.00;100430.97;5196672;28;20041;-70
2023/07/15 10:07:45;;;;;;;7.28;1.70;;;;;;;24.03;100.00;100420.34;5212607;28;20039;-70
2023/07/15 10:10:18;;;;;;;7.57;2.03;;;;;;;23.92;100.00;100428.34;5221970;28;20021;-70
2023/07/15 10:12:50;;;;;;;;;;;;;;;24.22;100.00;100429.47;5206642;28;20037;-69
2023/07/15 10:15:23;;;;;;;4.88;2.25;;;;;;;23.83;100.00;100414.94;5200266;28;19921;-69
2023/07/15 10:17:55;;;;;;;4.53;2.15;;;;;;;23.68;100.00;100419.78;5204008;28;20025;-69
2023/07/15 10:20:31;;;;;;;5.30;1.88;;;;;;;23.57;100.00;100395.94;5196724;28;20040;-68
2023/07/15 10:23:02;;;;;;;4.25;1.70;;;;;;;23.48;100.00;100398.91;5201775;28;20120;-69
2023/07/15 10:25:34;;;;;;;3.90;1.80;;;;;;;23.31;100.00;100394.13;5199226;28;20029;-69
2023/07/15 10:28:11;;;;;;;3.20;1.90;;;;;;;23.26;100.00;100409.22;5205667;28;20022;-69
2023/07/15 10:31:15;;;;;;;3.38;1.67;;;;;;;23.36;100.00;100406.06;5203367;28;20069;-69
2023/07/15 10:33:55;;;;;;;4.13;1.92;;;;;;;23.30;100.00;100406.91;5203589;28;20029;-68
2023/07/15 10:36:47;;;;;;;5.57;1.80;;;;;;;23.36;100.00;100406.06;5210408;28;20033;-69
2023/07/15 10:39:20;;;;;;;3.45;2.10;;;;;;;23.34;100.00;100401.84;5202208;28;20018;-68
2023/07/15 10:41:52;;;;;;;5.18;2.00;;;;;;;23.41;100.00;100398.06;5199416;28;20052;-69
2023/07/15 10:44:25;;;;;;;4.90;1.70;;;;;;;23.55;100.00;100414.38;5207435;28;20036;-69
2023/07/15 10:46:59;;;;;;;4.00;1.75;;;;;;;23.47;100.00;100415.44;5202525;28;20026;-68
2023/07/15 10:49:31;;;;;;;3.83;1.73;;;;;;;23.43;100.00;100412.34;5198617;28;20029;-69
2023/07/15 10:52:04;;;;;;;3.97;2.20;;;;;;;23.54;100.00;100402.66;5203663;28;20025;-68
2023/07/15 10:54:40;;;;;;;5.70;1.77;;;;;;;23.66;100.00;100409.13;5205657;28;20022;-69
2023/07/15 10:57:16;;;;;;;5.47;2.00;;;;;;;23.79;100.00;100412.88;5206588;28;20342;-68
2023/07/15 10:59:48;;;;;;;3.83;1.80;;;;;;;23.85;100.00;100417.47;5204294;28;20068;-68
2023/07/15 11:02:19;;;;;;;5.45;2.20;;;;;;;23.89;100.00;100421.44;5203103;28;20136;-69
2023/07/15 11:04:50;;;;;;;4.05;1.50;;;;;;;23.77;100.00;100409.50;5198116;28;20030;-69
2023/07/15 11:07:22;;;;;;;5.18;1.70;;;;;;;23.72;100.00;100412.88;5213099;28;20045;-68
2023/07/15 11:09:53;;;;;;;3.13;1.60;;;;;;;23.79;100.00;100407.44;5206759;28;20056;-69
2023/07/15 11:12:25;;;;;;;5.43;1.95;;;;;;;23.91;100.00;100405.69;5200826;28;20037;-68
2023/07/15 11:14:56;;;;;;;5.30;1.60;;;;;;;24.04;100.00;100405.63;5205967;28;20030;-69
2023/07/15 11:17:27;;;;;;;5.28;1.92;;;;;;;24.19;100.00;100402.63;5200012;28;20377;-68
2023/07/15 11:19:59;;;;;;;4.65;1.80;;;;;;;24.25;100.00;100406.38;5201156;28;20025;-68
2023/07/15 11:22:30;;;;;;;4.00;1.75;;;;;;;24.35;100.00;100384.91;5201295;28;20030;-68
2023/07/15 11:25:02;;;;;;;3.83;1.83;;;;;;;24.39;100.00;100396.22;5199162;28;20041;-69
2023/07/15 11:27:33;;;;;;;4.07;1.55;;;;;;;24.39;100.00;100401.66;5204388;28;20044;-69
2023/07/15 11:30:05;;;;;;;2.90;1.42;;;;;;;24.49;100.00;100403.91;5205528;28;20060;-69
2023/07/15 11:32:37;;;;;;;5.20;1.50;;;;;;;24.52;100.00;100403.50;5201639;28;20048;-70
2023/07/15 11:35:15;;;;;;;4.45;1.58;;;;;;;24.56;100.00;100386.47;5198293;28;20030;-69
2023/07/15 11:37:47;;;;;;;6.13;1.70;;;;;;;24.59;100.00;100385.22;5206245;28;20396;-70
2023/07/15 11:40:18;;;;;;;6.15;1.50;;;;;;;24.52;100.00;100385.25;5192984;28;20028;-71